createdAt,value
2018-06-02T00:00:17.851Z,84.8
2018-06-02T00:01:16.900Z,84.5
2018-06-02T00:02:17.433Z,84.6
2018-06-02T00:03:17.689Z,84.7
2018-06-02T00:04:16.946Z,84.8
2018-06-02T00:05:17.226Z,84.9
2018-06-02T00:06:17.526Z,84.9
2018-06-02T00:07:18.122Z,84.9
2018-06-02T00:08:17.436Z,85.2
2018-06-02T00:09:17.720Z,85.3
2018-06-02T00:10:17.014Z,85.3
2018-06-02T00:11:17.075Z,85.4
2018-06-02T00:12:17.375Z,85.5
2018-06-02T00:13:17.645Z,85.6
2018-06-02T00:14:16.952Z,85.6
2018-06-02T00:15:17.237Z,85.6
2018-06-02T00:16:17.527Z,85.3
2018-06-02T00:17:17.809Z,85.0
2018-06-02T00:18:17.090Z,85.3
2018-06-02T00:19:17.369Z,85.2
2018-06-02T00:20:17.660Z,85.4
2018-06-02T00:21:17.706Z,85.3
2018-06-02T00:22:16.988Z,85.7
2018-06-02T00:23:17.263Z,85.8
2018-06-02T00:24:17.557Z,86.0
2018-06-02T00:25:17.843Z,86.0
2018-06-02T00:26:17.101Z,86.0
2018-06-02T00:27:17.371Z,86.2
2018-06-02T00:28:17.656Z,85.8
2018-06-02T00:29:16.939Z,85.5
2018-06-02T00:30:17.226Z,85.6
2018-06-02T00:31:17.269Z,85.8
2018-06-02T00:32:17.555Z,86.0
2018-06-02T00:33:17.829Z,86.2
2018-06-02T00:34:17.121Z,86.1
2018-06-02T00:35:17.419Z,86.0
2018-06-02T00:36:17.715Z,86.1
2018-06-02T00:37:17.000Z,86.2
2018-06-02T00:38:17.284Z,86.2
2018-06-02T00:39:17.570Z,86.3
2018-06-02T00:40:17.860Z,86.6
2018-06-02T00:41:16.901Z,86.7
2018-06-02T00:42:17.204Z,86.7
2018-06-02T00:43:17.481Z,86.7
2018-06-02T00:44:17.773Z,86.8
2018-06-02T00:45:17.055Z,86.8
2018-06-02T00:46:17.345Z,86.8
2018-06-02T00:47:17.622Z,86.9
2018-06-02T00:48:16.900Z,86.5
2018-06-02T00:49:17.194Z,86.8
2018-06-02T00:50:17.477Z,86.8
2018-06-02T00:51:17.523Z,87.0
2018-06-02T00:52:17.810Z,87.2
2018-06-02T00:53:17.090Z,87.5
2018-06-02T00:54:17.380Z,87.7
2018-06-02T00:55:17.659Z,87.7
2018-06-02T00:56:16.934Z,87.4
2018-06-02T00:57:17.220Z,87.5
2018-06-02T00:58:17.514Z,87.5
2018-06-02T00:59:17.799Z,87.7
2018-06-02T01:00:17.087Z,87.7
2018-06-02T01:01:17.129Z,87.6
2018-06-02T01:02:17.418Z,87.3
2018-06-02T01:03:17.703Z,87.2
2018-06-02T01:04:16.997Z,86.9
2018-06-02T01:05:17.262Z,86.5
2018-06-02T01:06:17.536Z,86.5
2018-06-02T01:07:17.819Z,86.6
2018-06-02T01:08:17.116Z,87.0
2018-06-02T01:09:17.405Z,86.8
2018-06-02T01:10:17.707Z,87.0
2018-06-02T01:11:17.739Z,87.0
2018-06-02T01:12:17.015Z,87.1
2018-06-02T01:13:17.284Z,87.4
2018-06-02T01:14:17.570Z,87.6
2018-06-02T01:15:17.864Z,87.6
2018-06-02T01:16:17.158Z,87.8
2018-06-02T01:17:17.435Z,87.8
2018-06-02T01:18:17.723Z,87.8
2018-06-02T01:19:17.002Z,88.0
2018-06-02T01:20:17.297Z,88.1
2018-06-02T01:21:17.358Z,87.9
2018-06-02T01:22:17.637Z,88.2
2018-06-02T01:23:16.915Z,88.1
2018-06-02T01:24:17.499Z,88.2
2018-06-02T01:25:17.783Z,87.7
2018-06-02T01:26:17.075Z,87.8
2018-06-02T01:27:17.361Z,87.6
2018-06-02T01:28:17.631Z,88.2
2018-06-02T01:29:16.895Z,88.4
2018-06-02T01:30:17.189Z,88.1
2018-06-02T01:31:17.225Z,88.2
2018-06-02T01:32:17.514Z,88.2
2018-06-02T01:33:17.789Z,88.3
2018-06-02T01:34:17.075Z,88.5
2018-06-02T01:35:17.365Z,88.2
2018-06-02T01:36:17.659Z,88.3
2018-06-02T01:37:16.937Z,88.5
2018-06-02T01:38:17.214Z,88.5
2018-06-02T01:39:17.494Z,88.4
2018-06-02T01:40:17.785Z,88.8
2018-06-02T01:41:17.826Z,88.8
2018-06-02T01:42:17.079Z,88.8
2018-06-02T01:43:17.362Z,88.9
2018-06-02T01:44:17.644Z,88.9
2018-06-02T01:45:16.946Z,89.0
2018-06-02T01:46:17.219Z,88.8
2018-06-02T01:47:17.490Z,89.0
2018-06-02T01:48:17.764Z,89.1
2018-06-02T01:49:17.046Z,89.2
2018-06-02T01:50:17.350Z,89.3
2018-06-02T01:51:17.399Z,89.5
2018-06-02T01:52:17.680Z,89.5
2018-06-02T01:53:16.982Z,89.5
2018-06-02T01:54:17.263Z,89.5
2018-06-02T01:55:17.547Z,89.4
2018-06-02T01:56:17.821Z,89.5
2018-06-02T01:57:17.090Z,89.5
2018-06-02T01:58:17.363Z,89.7
2018-06-02T01:59:17.642Z,89.9
2018-06-02T02:00:16.972Z,89.8
2018-06-02T02:01:16.974Z,89.9
2018-06-02T02:02:17.257Z,89.9
2018-06-02T02:03:17.537Z,90.1
2018-06-02T02:04:17.812Z,89.9
2018-06-02T02:05:17.089Z,89.8
2018-06-02T02:06:17.371Z,89.7
2018-06-02T02:07:17.661Z,89.6
2018-06-02T02:08:16.935Z,89.7
2018-06-02T02:09:17.226Z,89.7
2018-06-02T02:10:17.510Z,89.8
2018-06-02T02:11:17.557Z,89.8
2018-06-02T02:12:17.898Z,89.7
2018-06-02T02:13:17.198Z,89.7
2018-06-02T02:14:17.471Z,89.7
2018-06-02T02:15:17.775Z,89.8
2018-06-02T02:16:17.058Z,89.7
2018-06-02T02:17:17.353Z,89.3
2018-06-02T02:18:17.625Z,89.6
2018-06-02T02:19:16.902Z,89.8
2018-06-02T02:20:17.185Z,89.7
2018-06-02T02:21:17.225Z,89.9
2018-06-02T02:22:17.513Z,89.9
2018-06-02T02:23:17.817Z,89.9
2018-06-02T02:24:17.122Z,90.2
2018-06-02T02:25:17.424Z,89.9
2018-06-02T02:26:17.704Z,89.9
2018-06-02T02:27:17.048Z,90.3
2018-06-02T02:28:17.323Z,89.7
2018-06-02T02:29:17.609Z,89.8
2018-06-02T02:30:17.910Z,89.8
2018-06-02T02:31:16.950Z,89.8
2018-06-02T02:32:17.237Z,89.5
2018-06-02T02:33:17.518Z,89.4
2018-06-02T02:34:17.793Z,89.5
2018-06-02T02:35:17.066Z,89.2
2018-06-02T02:36:17.331Z,89.3
2018-06-02T02:37:17.613Z,89.2
2018-06-02T02:38:16.877Z,89.2
2018-06-02T02:39:17.172Z,89.4
2018-06-02T02:40:17.452Z,89.2
2018-06-02T02:41:17.506Z,88.9
2018-06-02T02:42:17.762Z,88.7
2018-06-02T02:43:17.040Z,88.6
2018-06-02T02:44:17.304Z,88.5
2018-06-02T02:45:17.625Z,88.8
2018-06-02T02:46:16.905Z,88.5
2018-06-02T02:47:17.182Z,88.5
2018-06-02T02:48:17.449Z,88.3
2018-06-02T02:49:17.733Z,88.2
2018-06-02T02:50:16.999Z,88.1
2018-06-02T02:51:17.065Z,87.8
2018-06-02T02:52:17.349Z,88.4
2018-06-02T02:53:17.639Z,88.6
2018-06-02T02:54:16.939Z,88.8
2018-06-02T02:55:17.257Z,88.6
2018-06-02T02:56:17.548Z,88.6
2018-06-02T02:57:17.827Z,88.7
2018-06-02T02:58:17.104Z,88.8
2018-06-02T02:59:17.391Z,88.9
2018-06-02T03:00:17.667Z,88.9
2018-06-02T03:01:17.781Z,89.1
2018-06-02T03:02:17.046Z,89.2
2018-06-02T03:03:17.318Z,89.2
2018-06-02T03:04:17.615Z,89.3
2018-06-02T03:05:16.922Z,89.5
2018-06-02T03:06:17.205Z,89.7
2018-06-02T03:07:17.497Z,89.9
2018-06-02T03:08:17.778Z,89.8
2018-06-02T03:09:17.060Z,90.0
2018-06-02T03:10:17.346Z,89.9
2018-06-02T03:11:17.412Z,90.0
2018-06-02T03:12:17.710Z,89.8
2018-06-02T03:13:16.999Z,89.5
2018-06-02T03:14:17.368Z,89.5
2018-06-02T03:15:17.652Z,89.5
2018-06-02T03:16:16.946Z,89.7
2018-06-02T03:17:17.236Z,89.8
2018-06-02T03:18:17.528Z,90.0
2018-06-02T03:19:17.819Z,90.2
2018-06-02T03:20:17.106Z,89.5
2018-06-02T03:21:17.159Z,89.5
2018-06-02T03:22:17.436Z,89.5
2018-06-02T03:23:17.715Z,89.7
2018-06-02T03:24:16.999Z,89.8
2018-06-02T03:25:17.284Z,90.2
2018-06-02T03:26:17.566Z,89.7
2018-06-02T03:27:17.843Z,89.8
2018-06-02T03:28:17.127Z,89.8
2018-06-02T03:29:17.408Z,90.0
2018-06-02T03:30:17.696Z,90.2
2018-06-02T03:31:17.780Z,90.1
2018-06-02T03:32:17.072Z,90.0
2018-06-02T03:33:17.344Z,89.8
2018-06-02T03:34:17.622Z,89.9
2018-06-02T03:35:16.904Z,89.5
2018-06-02T03:36:17.178Z,89.4
2018-06-02T03:37:17.466Z,89.6
2018-06-02T03:38:17.747Z,89.7
2018-06-02T03:39:17.026Z,89.5
2018-06-02T03:40:17.300Z,89.6
2018-06-02T03:41:17.071Z,89.7
2018-06-02T03:42:17.354Z,89.7
2018-06-02T03:43:17.640Z,90.1
2018-06-02T03:44:16.953Z,90.1
2018-06-02T03:45:17.233Z,90.0
2018-06-02T03:46:17.507Z,89.4
2018-06-02T03:47:17.789Z,89.1
2018-06-02T03:48:17.094Z,89.0
2018-06-02T03:49:17.381Z,88.7
2018-06-02T03:50:17.664Z,88.6
2018-06-02T03:51:17.721Z,88.3
2018-06-02T03:52:17.010Z,88.8
2018-06-02T03:53:17.288Z,88.8
2018-06-02T03:54:17.560Z,88.9
2018-06-02T03:55:17.851Z,89.0
2018-06-02T03:56:17.132Z,89.2
2018-06-02T03:57:17.404Z,89.1
2018-06-02T03:58:17.683Z,89.0
2018-06-02T03:59:16.968Z,88.7
2018-06-02T04:00:17.264Z,88.3
2018-06-02T04:01:17.316Z,88.2
2018-06-02T04:02:17.590Z,88.3
2018-06-02T04:03:17.870Z,88.2
2018-06-02T04:04:17.155Z,88.2
2018-06-02T04:05:17.425Z,88.2
2018-06-02T04:06:17.713Z,88.0
2018-06-02T04:07:17.017Z,88.2
2018-06-02T04:08:17.316Z,88.0
2018-06-02T04:09:17.593Z,88.1
2018-06-02T04:10:17.878Z,87.9
2018-06-02T04:11:16.925Z,87.8
2018-06-02T04:12:17.214Z,87.7
2018-06-02T04:13:17.491Z,87.6
2018-06-02T04:14:17.780Z,87.4
2018-06-02T04:15:17.069Z,87.4
2018-06-02T04:16:17.350Z,87.1
2018-06-02T04:17:17.633Z,87.0
2018-06-02T04:18:16.920Z,86.8
2018-06-02T04:19:17.206Z,87.1
2018-06-02T04:20:17.480Z,86.6
2018-06-02T04:21:17.542Z,86.5
2018-06-02T04:22:17.816Z,86.4
2018-06-02T04:23:17.086Z,86.1
2018-06-02T04:24:17.386Z,86.0
2018-06-02T04:25:17.683Z,86.2
2018-06-02T04:26:16.981Z,86.3
2018-06-02T04:27:17.263Z,86.2
2018-06-02T04:28:17.548Z,86.6
2018-06-02T04:29:17.821Z,86.2
2018-06-02T04:30:17.110Z,86.1
2018-06-02T04:31:17.160Z,86.0
2018-06-02T04:32:17.445Z,85.8
2018-06-02T04:33:17.719Z,85.6
2018-06-02T04:34:17.022Z,85.7
2018-06-02T04:35:17.314Z,85.7
2018-06-02T04:36:17.615Z,85.7
2018-06-02T04:37:16.894Z,85.8
2018-06-02T04:38:17.168Z,85.8
2018-06-02T04:39:17.453Z,85.8
2018-06-02T04:40:17.738Z,85.5
2018-06-02T04:41:17.780Z,85.8
2018-06-02T04:42:17.062Z,86.1
2018-06-02T04:43:17.346Z,85.8
2018-06-02T04:44:17.645Z,85.9
2018-06-02T04:45:16.910Z,85.3
2018-06-02T04:46:17.189Z,85.5
2018-06-02T04:47:17.470Z,85.7
2018-06-02T04:48:17.756Z,85.5
2018-06-02T04:49:17.043Z,85.5
2018-06-02T04:50:17.354Z,85.5
2018-06-02T04:51:17.371Z,85.3
2018-06-02T04:52:17.663Z,85.2
2018-06-02T04:53:16.931Z,85.5
2018-06-02T04:54:17.213Z,85.3
2018-06-02T04:55:17.507Z,85.2
2018-06-02T04:56:17.788Z,85.0
2018-06-02T04:57:17.071Z,84.9
2018-06-02T04:58:17.356Z,84.9
2018-06-02T04:59:17.642Z,84.9
2018-06-02T05:00:16.966Z,84.8
2018-06-02T05:01:17.002Z,84.9
2018-06-02T05:02:17.267Z,84.5
2018-06-02T05:03:17.523Z,84.2
2018-06-02T05:04:17.781Z,84.0
2018-06-02T05:05:17.066Z,83.8
2018-06-02T05:06:17.352Z,83.8
2018-06-02T05:07:17.627Z,84.2
2018-06-02T05:08:16.908Z,84.7
2018-06-02T05:09:17.191Z,84.2
2018-06-02T05:10:17.475Z,84.2
2018-06-02T05:11:17.529Z,84.3
2018-06-02T05:12:17.815Z,84.5
2018-06-02T05:13:17.137Z,84.4
2018-06-02T05:14:17.679Z,83.8
2018-06-02T05:15:17.184Z,83.8
2018-06-02T05:16:17.468Z,83.7
2018-06-02T05:17:17.732Z,83.4
2018-06-02T05:18:16.996Z,82.8
2018-06-02T05:19:17.654Z,82.7
2018-06-02T05:20:16.960Z,82.5
2018-06-02T05:21:16.961Z,81.8
2018-06-02T05:22:17.263Z,81.7
2018-06-02T05:23:17.557Z,82.2
2018-06-02T05:24:17.828Z,82.0
2018-06-02T05:25:17.106Z,81.0
2018-06-02T05:26:17.386Z,80.7
2018-06-02T05:27:17.665Z,80.5
2018-06-02T05:28:16.938Z,79.9
2018-06-02T05:29:17.216Z,80.0
2018-06-02T05:30:17.518Z,80.3
2018-06-02T05:31:17.555Z,81.0
2018-06-02T05:32:17.841Z,81.1
2018-06-02T05:33:17.148Z,80.7
2018-06-02T05:34:17.438Z,81.0
2018-06-02T05:35:17.823Z,80.8
2018-06-02T05:36:17.114Z,80.8
2018-06-02T05:37:17.412Z,80.7
2018-06-02T05:38:17.714Z,80.6
2018-06-02T05:39:16.982Z,80.2
2018-06-02T05:40:17.278Z,79.9
2018-06-02T05:41:17.304Z,80.0
2018-06-02T05:42:17.590Z,79.6
2018-06-02T05:43:17.866Z,79.9
2018-06-02T05:44:17.133Z,78.8
2018-06-02T05:45:17.407Z,78.5
2018-06-02T05:46:17.684Z,79.0
2018-06-02T05:47:16.967Z,79.0
2018-06-02T05:48:17.244Z,78.2
2018-06-02T05:49:17.529Z,78.1
2018-06-02T05:50:17.833Z,78.2
2018-06-02T05:51:17.975Z,77.7
2018-06-02T05:52:17.258Z,77.4
2018-06-02T05:53:17.545Z,77.0
2018-06-02T05:54:17.826Z,77.2
2018-06-02T05:55:17.111Z,77.5
2018-06-02T05:56:17.396Z,76.8
2018-06-02T05:57:17.656Z,76.8
2018-06-02T05:58:16.919Z,77.0
2018-06-02T05:59:17.181Z,77.2
2018-06-02T06:00:17.449Z,77.8
2018-06-02T06:01:17.522Z,77.0
2018-06-02T06:02:17.813Z,77.2
2018-06-02T06:03:17.093Z,77.6
2018-06-02T06:04:17.373Z,77.3
2018-06-02T06:05:17.666Z,76.8
2018-06-02T06:06:16.952Z,76.7
2018-06-02T06:07:17.245Z,75.1
2018-06-02T06:08:17.518Z,75.0
2018-06-02T06:09:17.810Z,74.1
2018-06-02T06:10:17.080Z,74.2
2018-06-02T06:11:17.119Z,74.7
2018-06-02T06:12:17.393Z,75.0
2018-06-02T06:13:17.673Z,75.3
2018-06-02T06:14:16.941Z,75.2
2018-06-02T06:15:17.221Z,74.3
2018-06-02T06:16:17.504Z,74.2
2018-06-02T06:17:17.795Z,74.7
2018-06-02T06:18:17.074Z,74.5
2018-06-02T06:19:17.353Z,64.1
2018-06-02T06:20:17.645Z,74.5
2018-06-02T06:21:17.656Z,74.5
2018-06-02T06:22:16.942Z,74.6
2018-06-02T06:23:17.232Z,74.7
2018-06-02T06:24:17.507Z,73.5
2018-06-02T06:25:17.777Z,74.1
2018-06-02T06:26:17.060Z,73.8
2018-06-02T06:27:17.373Z,72.8
2018-06-02T06:28:17.699Z,72.8
2018-06-02T06:29:16.983Z,73.8
2018-06-02T06:30:17.281Z,73.6
2018-06-02T06:31:17.322Z,73.7
2018-06-02T06:32:17.595Z,73.2
2018-06-02T06:33:17.903Z,72.5
2018-06-02T06:34:17.208Z,72.9
2018-06-02T06:35:17.493Z,72.1
2018-06-02T06:36:17.780Z,71.7
2018-06-02T06:37:17.064Z,70.8
2018-06-02T06:38:17.344Z,71.2
2018-06-02T06:39:17.642Z,71.5
2018-06-02T06:40:16.943Z,72.0
2018-06-02T06:41:16.993Z,71.2
2018-06-02T06:42:17.270Z,70.2
2018-06-02T06:43:17.574Z,68.8
2018-06-02T06:44:17.863Z,67.8
2018-06-02T06:45:17.138Z,66.8
2018-06-02T06:46:17.420Z,67.1
2018-06-02T06:47:17.704Z,66.9
2018-06-02T06:48:16.998Z,65.6
2018-06-02T06:49:17.277Z,65.9
2018-06-02T06:50:17.540Z,66.5
2018-06-02T06:51:17.606Z,65.3
2018-06-02T06:52:17.886Z,67.6
2018-06-02T06:53:17.189Z,66.9
2018-06-02T06:54:17.496Z,66.7
2018-06-02T06:55:17.781Z,65.7
2018-06-02T06:56:17.061Z,65.7
2018-06-02T06:57:17.341Z,65.0
2018-06-02T06:58:17.638Z,65.5
2018-06-02T06:59:16.941Z,65.2
2018-06-02T07:00:17.246Z,65.7
2018-06-02T07:01:17.279Z,67.1
2018-06-02T07:02:17.552Z,68.0
2018-06-02T07:03:18.197Z,68.8
2018-06-02T07:04:17.483Z,68.5
2018-06-02T07:05:17.762Z,68.8
2018-06-02T07:06:17.045Z,67.5
2018-06-02T07:07:17.316Z,67.8
2018-06-02T07:08:17.603Z,67.5
2018-06-02T07:09:17.885Z,66.5
2018-06-02T07:10:17.183Z,66.2
2018-06-02T07:11:17.213Z,65.2
2018-06-02T07:12:17.680Z,65.2
2018-06-02T07:13:16.959Z,65.0
2018-06-02T07:14:17.234Z,65.0
2018-06-02T07:15:17.522Z,64.8
2018-06-02T07:16:17.782Z,64.5
2018-06-02T07:17:17.066Z,64.5
2018-06-02T07:18:17.674Z,64.3
2018-06-02T07:19:16.976Z,64.3
2018-06-02T07:20:17.275Z,64.0
2018-06-02T07:21:17.313Z,62.6
2018-06-02T07:22:17.596Z,62.0
2018-06-02T07:23:17.904Z,62.4
2018-06-02T07:24:17.180Z,62.8
2018-06-02T07:25:17.435Z,62.7
2018-06-02T07:26:17.695Z,62.0
2018-06-02T07:27:16.955Z,64.0
2018-06-02T07:28:17.247Z,64.5
2018-06-02T07:29:17.548Z,63.6
2018-06-02T07:30:17.849Z,63.5
2018-06-02T07:31:17.877Z,63.4
2018-06-02T07:32:17.159Z,65.5
2018-06-02T07:33:17.436Z,65.3
2018-06-02T07:34:17.713Z,64.5
2018-06-02T07:35:17.012Z,63.3
2018-06-02T07:36:17.309Z,62.5
2018-06-02T07:37:17.582Z,61.6
2018-06-02T07:38:18.029Z,62.4
2018-06-02T07:39:17.313Z,62.8
2018-06-02T07:40:17.599Z,62.8
2018-06-02T07:41:17.658Z,61.0
2018-06-02T07:42:16.933Z,61.7
2018-06-02T07:43:17.224Z,62.6
2018-06-02T07:44:17.587Z,62.2
2018-06-02T07:45:17.880Z,61.6
2018-06-02T07:46:17.165Z,60.7
2018-06-02T07:47:17.449Z,59.9
2018-06-02T07:48:17.732Z,60.6
2018-06-02T07:49:17.013Z,61.3
2018-06-02T07:50:17.317Z,58.4
2018-06-02T07:51:17.334Z,58.5
2018-06-02T07:52:17.605Z,59.0
2018-06-02T07:53:17.907Z,58.9
2018-06-02T07:54:17.207Z,58.8
2018-06-02T07:55:17.496Z,59.3
2018-06-02T07:56:17.785Z,57.5
2018-06-02T07:57:17.064Z,60.0
2018-06-02T07:58:17.351Z,61.2
2018-06-02T07:59:17.644Z,61.4
2018-06-02T08:00:16.956Z,60.3
2018-06-02T08:01:17.012Z,60.2
2018-06-02T08:02:17.288Z,58.4
2018-06-02T08:03:17.543Z,57.5
2018-06-02T08:04:17.844Z,59.0
2018-06-02T08:05:17.138Z,57.5
2018-06-02T08:06:17.430Z,59.0
2018-06-02T08:07:17.711Z,61.2
2018-06-02T08:08:16.988Z,59.2
2018-06-02T08:09:17.283Z,57.5
2018-06-02T08:10:17.558Z,58.0
2018-06-02T08:11:17.640Z,58.0
2018-06-02T08:12:16.919Z,58.1
2018-06-02T08:13:17.220Z,56.1
2018-06-02T08:14:17.501Z,56.0
2018-06-02T08:15:17.779Z,56.6
2018-06-02T08:16:17.066Z,55.4
2018-06-02T08:17:17.324Z,58.3
2018-06-02T08:18:17.608Z,58.9
2018-06-02T08:19:17.882Z,59.8
2018-06-02T08:20:17.150Z,59.2
2018-06-02T08:21:17.198Z,58.9
2018-06-02T08:22:17.495Z,57.5
2018-06-02T08:23:17.784Z,57.2
2018-06-02T08:24:17.072Z,56.1
2018-06-02T08:25:17.348Z,55.9
2018-06-02T08:26:17.640Z,54.8
2018-06-02T08:27:16.917Z,52.5
2018-06-02T08:28:17.216Z,51.1
2018-06-02T08:29:17.500Z,48.5
2018-06-02T08:30:17.781Z,50.5
2018-06-02T08:31:17.847Z,53.2
2018-06-02T08:32:17.431Z,55.1
2018-06-02T08:33:17.776Z,55.8
2018-06-02T08:34:17.045Z,56.1
2018-06-02T08:35:17.322Z,57.1
2018-06-02T08:36:17.606Z,56.6
2018-06-02T08:37:17.907Z,58.0
2018-06-02T08:38:17.189Z,59.2
2018-06-02T08:39:17.450Z,57.8
2018-06-02T08:40:17.729Z,54.5
2018-06-02T08:41:17.779Z,54.9
2018-06-02T08:42:17.051Z,55.6
2018-06-02T08:43:17.326Z,53.4
2018-06-02T08:44:17.605Z,53.2
2018-06-02T08:45:17.905Z,52.8
2018-06-02T08:46:17.182Z,51.5
2018-06-02T08:47:17.461Z,51.5
2018-06-02T08:48:17.742Z,50.5
2018-06-02T08:49:17.016Z,51.8
2018-06-02T08:50:17.308Z,51.4
2018-06-02T08:51:17.373Z,51.2
2018-06-02T08:52:17.670Z,50.8
2018-06-02T08:53:16.957Z,50.5
2018-06-02T08:54:17.247Z,52.9
2018-06-02T08:55:17.548Z,54.7
2018-06-02T08:56:17.827Z,56.5
2018-06-02T08:57:17.164Z,56.5
2018-06-02T08:58:17.424Z,56.6
2018-06-02T08:59:17.685Z,57.2
2018-06-02T09:00:16.980Z,55.9
2018-06-02T09:01:17.017Z,56.8
2018-06-02T09:02:17.294Z,55.7
2018-06-02T09:03:17.592Z,53.3
2018-06-02T09:04:17.872Z,54.7
2018-06-02T09:05:17.222Z,53.5
2018-06-02T09:06:17.484Z,52.2
2018-06-02T09:07:18.153Z,54.1
2018-06-02T09:08:17.414Z,54.0
2018-06-02T09:09:17.715Z,54.8
2018-06-02T09:10:17.000Z,53.5
2018-06-02T09:11:17.045Z,53.2
2018-06-02T09:12:17.329Z,52.4
2018-06-02T09:13:17.622Z,53.0
2018-06-02T09:14:17.893Z,52.5
2018-06-02T09:15:17.189Z,55.2
2018-06-02T09:16:17.464Z,53.5
2018-06-02T09:17:17.747Z,53.2
2018-06-02T09:18:17.025Z,50.3
2018-06-02T09:19:17.298Z,51.3
2018-06-02T09:20:17.586Z,51.6
2018-06-02T09:21:17.651Z,50.3
2018-06-02T09:22:16.949Z,49.8
2018-06-02T09:23:17.231Z,49.9
2018-06-02T09:24:17.507Z,47.6
2018-06-02T09:25:17.813Z,48.1
2018-06-02T09:26:17.090Z,49.6
2018-06-02T09:27:17.374Z,48.2
2018-06-02T09:28:17.648Z,50.2
2018-06-02T09:29:16.920Z,49.2
2018-06-02T09:30:17.190Z,50.4
2018-06-02T09:31:17.249Z,50.5
2018-06-02T09:32:17.541Z,48.5
2018-06-02T09:33:17.820Z,49.5
2018-06-02T09:34:17.122Z,50.5
2018-06-02T09:35:17.497Z,50.5
2018-06-02T09:36:17.834Z,50.2
2018-06-02T09:37:17.100Z,50.3
2018-06-02T09:38:17.379Z,48.7
2018-06-02T09:39:17.667Z,51.1
2018-06-02T09:40:16.948Z,50.2
2018-06-02T09:41:16.997Z,51.0
2018-06-02T09:42:17.266Z,49.4
2018-06-02T09:43:17.547Z,48.2
2018-06-02T09:44:17.828Z,49.1
2018-06-02T09:45:17.110Z,51.5
2018-06-02T09:46:17.403Z,51.7
2018-06-02T09:47:17.673Z,50.0
2018-06-02T09:48:16.960Z,47.8
2018-06-02T09:49:17.239Z,49.0
2018-06-02T09:50:17.509Z,49.9
2018-06-02T09:51:17.579Z,50.5
2018-06-02T09:52:17.883Z,50.0
2018-06-02T09:53:17.182Z,48.4
2018-06-02T09:54:17.465Z,48.0
2018-06-02T09:55:17.756Z,49.8
2018-06-02T09:56:17.035Z,50.8
2018-06-02T09:57:17.592Z,51.1
2018-06-02T09:58:17.879Z,54.0
2018-06-02T09:59:17.155Z,54.0
2018-06-02T10:00:17.437Z,51.9
2018-06-02T10:01:17.483Z,52.8
2018-06-02T10:02:17.780Z,51.7
2018-06-02T10:03:17.056Z,51.3
2018-06-02T10:04:17.332Z,51.0
2018-06-02T10:05:17.594Z,48.7
2018-06-02T10:06:17.879Z,49.8
2018-06-02T10:07:17.155Z,50.0
2018-06-02T10:08:17.429Z,48.6
2018-06-02T10:09:17.719Z,48.5
2018-06-02T10:10:16.998Z,48.0
2018-06-02T10:11:17.048Z,46.9
2018-06-02T10:12:17.540Z,46.2
2018-06-02T10:13:17.849Z,47.7
2018-06-02T10:14:17.196Z,45.3
2018-06-02T10:15:17.477Z,48.1
2018-06-02T10:16:17.762Z,47.2
2018-06-02T10:17:17.045Z,47.5
2018-06-02T10:18:17.332Z,46.2
2018-06-02T10:19:17.615Z,45.8
2018-06-02T10:20:17.916Z,46.0
2018-06-02T10:21:16.949Z,47.4
2018-06-02T10:22:17.245Z,48.4
2018-06-02T10:23:17.522Z,47.4
2018-06-02T10:24:17.795Z,45.7
2018-06-02T10:25:17.094Z,46.0
2018-06-02T10:26:17.379Z,47.9
2018-06-02T10:27:17.663Z,48.6
2018-06-02T10:28:16.943Z,48.7
2018-06-02T10:29:17.228Z,49.8
2018-06-02T10:30:17.496Z,49.9
2018-06-02T10:31:17.565Z,49.5
2018-06-02T10:32:17.840Z,48.7
2018-06-02T10:33:17.118Z,47.5
2018-06-02T10:34:17.406Z,49.0
2018-06-02T10:35:17.694Z,48.6
2018-06-02T10:36:16.973Z,48.5
2018-06-02T10:37:17.250Z,49.4
2018-06-02T10:38:17.528Z,49.0
2018-06-02T10:39:17.826Z,49.8
2018-06-02T10:40:17.114Z,48.4
2018-06-02T10:41:17.175Z,48.9
2018-06-02T10:42:17.470Z,50.2
2018-06-02T10:43:17.756Z,49.5
2018-06-02T10:44:17.060Z,51.0
2018-06-02T10:45:17.338Z,50.0
2018-06-02T10:46:17.622Z,50.8
2018-06-02T10:47:16.904Z,51.0
2018-06-02T10:48:17.187Z,51.0
2018-06-02T10:49:17.462Z,49.1
2018-06-02T10:50:17.753Z,48.6
2018-06-02T10:51:17.835Z,48.0
2018-06-02T10:52:17.146Z,48.2
2018-06-02T10:53:17.402Z,48.5
2018-06-02T10:54:17.676Z,50.0
2018-06-02T10:55:16.967Z,50.2
2018-06-02T10:56:17.250Z,49.8
2018-06-02T10:57:17.537Z,50.7
2018-06-02T10:58:17.822Z,51.3
2018-06-02T10:59:17.115Z,49.7
2018-06-02T11:00:17.379Z,50.6
2018-06-02T11:01:17.439Z,49.8
2018-06-02T11:02:17.729Z,51.5
2018-06-02T11:03:17.012Z,51.2
2018-06-02T11:04:17.288Z,51.4
2018-06-02T11:05:17.582Z,51.4
2018-06-02T11:06:17.863Z,52.7
2018-06-02T11:07:17.142Z,51.5
2018-06-02T11:08:17.430Z,51.1
2018-06-02T11:09:17.719Z,51.4
2018-06-02T11:10:17.033Z,50.9
2018-06-02T11:11:17.047Z,50.7
2018-06-02T11:12:17.359Z,49.5
2018-06-02T11:13:17.655Z,49.7
2018-06-02T11:14:16.950Z,50.8
2018-06-02T11:15:17.230Z,50.5
2018-06-02T11:16:17.509Z,50.2
2018-06-02T11:17:17.811Z,50.8
2018-06-02T11:18:17.070Z,50.5
2018-06-02T11:19:17.350Z,43.5
2018-06-02T11:20:17.642Z,51.4
2018-06-02T11:21:17.682Z,50.6
2018-06-02T11:22:16.964Z,50.5
2018-06-02T11:23:17.250Z,50.1
2018-06-02T11:24:17.531Z,51.2
2018-06-02T11:25:17.800Z,50.2
2018-06-02T11:26:17.057Z,50.0
2018-06-02T11:27:17.332Z,50.8
2018-06-02T11:28:17.611Z,50.5
2018-06-02T11:29:17.910Z,50.3
2018-06-02T11:30:17.247Z,50.7
2018-06-02T11:31:17.241Z,50.8
2018-06-02T11:32:17.517Z,49.9
2018-06-02T11:33:17.813Z,49.2
2018-06-02T11:34:17.096Z,48.5
2018-06-02T11:35:17.365Z,48.1
2018-06-02T11:36:17.631Z,46.7
2018-06-02T11:37:16.892Z,48.3
2018-06-02T11:38:17.187Z,47.8
2018-06-02T11:39:17.464Z,48.8
2018-06-02T11:40:17.732Z,47.4
2018-06-02T11:41:17.788Z,46.6
2018-06-02T11:42:17.092Z,46.8
2018-06-02T11:43:17.375Z,45.5
2018-06-02T11:44:17.716Z,45.8
2018-06-02T11:45:17.024Z,45.0
2018-06-02T11:46:17.311Z,44.7
2018-06-02T11:47:17.570Z,45.1
2018-06-02T11:48:17.850Z,44.2
2018-06-02T11:49:17.148Z,46.2
2018-06-02T11:50:17.437Z,46.1
2018-06-02T11:51:17.464Z,45.8
2018-06-02T11:52:18.174Z,45.5
2018-06-02T11:53:17.453Z,45.6
2018-06-02T11:54:17.738Z,47.5
2018-06-02T11:55:17.029Z,47.7
2018-06-02T11:56:17.312Z,47.2
2018-06-02T11:57:17.624Z,46.0
2018-06-02T11:58:16.937Z,45.8
2018-06-02T11:59:17.239Z,46.2
2018-06-02T12:00:17.519Z,45.6
2018-06-02T12:01:17.574Z,46.5
2018-06-02T12:02:17.862Z,45.5
2018-06-02T12:03:17.150Z,45.2
2018-06-02T12:04:17.431Z,44.6
2018-06-02T12:05:17.705Z,45.4
2018-06-02T12:06:16.963Z,46.6
2018-06-02T12:07:17.258Z,46.4
2018-06-02T12:08:17.555Z,45.1
2018-06-02T12:09:17.852Z,45.2
2018-06-02T12:10:17.146Z,45.2
2018-06-02T12:11:17.201Z,45.8
2018-06-02T12:12:17.475Z,46.7
2018-06-02T12:13:17.758Z,46.4
2018-06-02T12:14:17.036Z,46.6
2018-06-02T12:15:17.339Z,46.3
2018-06-02T12:16:17.647Z,46.8
2018-06-02T12:17:16.941Z,47.0
2018-06-02T12:18:17.224Z,47.2
2018-06-02T12:19:17.501Z,47.4
2018-06-02T12:20:17.803Z,47.1
2018-06-02T12:21:17.816Z,47.0
2018-06-02T12:22:17.096Z,49.0
2018-06-02T12:23:17.381Z,48.1
2018-06-02T12:24:17.664Z,48.2
2018-06-02T12:25:16.940Z,48.5
2018-06-02T12:26:17.222Z,48.2
2018-06-02T12:27:17.499Z,48.8
2018-06-02T12:28:17.910Z,48.4
2018-06-02T12:29:17.281Z,48.1
2018-06-02T12:30:17.574Z,46.8
2018-06-02T12:31:17.612Z,47.6
2018-06-02T12:32:17.899Z,46.5
2018-06-02T12:33:17.170Z,47.7
2018-06-02T12:34:17.452Z,47.5
2018-06-02T12:35:17.745Z,48.5
2018-06-02T12:36:17.025Z,47.8
2018-06-02T12:37:17.300Z,48.2
2018-06-02T12:38:17.592Z,48.0
2018-06-02T12:39:17.870Z,46.5
2018-06-02T12:40:17.441Z,44.8
2018-06-02T12:41:17.217Z,44.6
2018-06-02T12:42:17.480Z,45.7
2018-06-02T12:43:17.762Z,44.0
2018-06-02T12:44:17.042Z,44.0
2018-06-02T12:45:17.325Z,44.6
2018-06-02T12:46:17.612Z,44.3
2018-06-02T12:47:17.890Z,45.5
2018-06-02T12:48:17.173Z,46.4
2018-06-02T12:49:17.462Z,46.7
2018-06-02T12:50:17.758Z,46.2
2018-06-02T12:51:17.811Z,45.4
2018-06-02T12:52:17.108Z,46.4
2018-06-02T12:53:17.448Z,46.5
2018-06-02T12:54:17.729Z,47.0
2018-06-02T12:55:17.008Z,47.0
2018-06-02T12:56:17.318Z,47.0
2018-06-02T12:57:17.589Z,48.9
2018-06-02T12:58:17.891Z,48.0
2018-06-02T12:59:17.177Z,49.9
2018-06-02T13:00:17.452Z,46.9
2018-06-02T13:01:17.528Z,48.5
2018-06-02T13:02:17.818Z,49.2
2018-06-02T13:03:17.107Z,49.3
2018-06-02T13:04:17.388Z,49.2
2018-06-02T13:05:17.664Z,48.2
2018-06-02T13:06:16.956Z,47.6
2018-06-02T13:07:17.229Z,49.0
2018-06-02T13:08:17.529Z,48.6
2018-06-02T13:09:17.831Z,47.8
2018-06-02T13:10:17.100Z,49.5
2018-06-02T13:11:17.171Z,48.1
2018-06-02T13:12:17.457Z,49.3
2018-06-02T13:13:17.743Z,50.0
2018-06-02T13:14:17.001Z,49.4
2018-06-02T13:15:17.262Z,49.5
2018-06-02T13:16:17.526Z,50.1
2018-06-02T13:17:17.796Z,49.5
2018-06-02T13:18:17.081Z,49.4